createdAt,value
2022-11-19T00:01:27.006Z,10.80
2022-11-19T00:03:54.427Z,10.80
2022-11-19T00:06:23.578Z,10.80
2022-11-19T00:08:51.120Z,10.50
2022-11-19T00:11:40.984Z,10.30
2022-11-19T00:14:09.421Z,10.30
2022-11-19T00:16:36.364Z,10.40
2022-11-19T00:19:03.533Z,10.40
2022-11-19T00:21:30.566Z,10.30
2022-11-19T00:23:57.683Z,10.40
2022-11-19T00:26:25.164Z,10.20
2022-11-19T00:28:52.143Z,10.30
2022-11-19T00:31:19.373Z,10.30
2022-11-19T00:33:47.168Z,10.20
2022-11-19T00:36:15.515Z,10.10
2022-11-19T00:38:43.117Z,10.00
2022-11-19T00:41:10.800Z,10.00
2022-11-19T00:43:50.256Z,10.20
2022-11-19T00:46:20.101Z,10.20
2022-11-19T00:48:48.700Z,9.90
2022-11-19T00:51:17.201Z,9.80
2022-11-19T00:53:44.372Z,9.90
2022-11-19T00:56:14.143Z,10.20
2022-11-19T00:58:41.723Z,10.30
2022-11-19T01:01:10.002Z,10.20
2022-11-19T01:03:38.887Z,10.10
2022-11-19T01:06:07.068Z,10.00
2022-11-19T01:08:34.792Z,10.00
2022-11-19T01:11:13.724Z,10.00
2022-11-19T01:13:40.868Z,10.10
2022-11-19T01:16:31.212Z,10.00
2022-11-19T01:18:58.765Z,10.20
2022-11-19T01:21:29.194Z,10.30
2022-11-19T01:23:57.105Z,10.50
2022-11-19T01:26:25.194Z,10.60
2022-11-19T01:28:52.255Z,10.50
2022-11-19T01:31:27.936Z,10.30
2022-11-19T01:33:55.145Z,10.20
2022-11-19T01:36:28.209Z,10.20
2022-11-19T01:38:57.065Z,10.30
2022-11-19T01:41:25.477Z,10.30
2022-11-19T01:43:56.535Z,10.30
2022-11-19T01:46:29.052Z,10.30
2022-11-19T01:49:02.563Z,10.40
2022-11-19T01:51:40.339Z,10.30
2022-11-19T01:54:16.170Z,10.20
2022-11-19T01:56:43.945Z,10.30
2022-11-19T01:59:15.730Z,10.30
2022-11-19T02:01:44.246Z,10.40
2022-11-19T02:04:13.287Z,10.60
2022-11-19T02:06:41.490Z,10.70
2022-11-19T02:09:08.667Z,10.80
2022-11-19T02:12:02.647Z,10.70
2022-11-19T02:14:38.945Z,10.60
2022-11-19T02:17:27.896Z,10.70
2022-11-19T02:20:37.130Z,10.60
2022-11-19T02:23:16.295Z,10.50
2022-11-19T02:26:20.986Z,10.30
2022-11-19T02:28:52.298Z,10.30
2022-11-19T02:31:22.189Z,10.40
2022-11-19T02:33:56.301Z,10.40
2022-11-19T02:36:40.669Z,10.40
2022-11-19T02:39:42.246Z,10.30
2022-11-19T02:42:09.278Z,10.30
2022-11-19T02:45:02.756Z,10.20
2022-11-19T02:47:39.228Z,10.30
2022-11-19T02:50:26.795Z,10.50
2022-11-19T02:52:54.400Z,10.60
2022-11-19T02:55:22.421Z,10.50
2022-11-19T02:58:06.547Z,10.60
2022-11-19T03:01:03.981Z,10.60
2022-11-19T03:03:51.318Z,10.50
2022-11-19T03:06:23.723Z,10.40
2022-11-19T03:08:50.835Z,10.40
2022-11-19T03:11:21.663Z,10.70
2022-11-19T03:14:15.699Z,10.50
2022-11-19T03:16:52.493Z,10.40
2022-11-19T03:19:25.813Z,10.40
2022-11-19T03:22:00.957Z,10.50
2022-11-19T03:24:40.184Z,10.50
2022-11-19T03:27:18.276Z,10.40
2022-11-19T03:29:52.027Z,10.40
2022-11-19T03:32:24.077Z,10.40
2022-11-19T03:34:56.624Z,10.50
2022-11-19T03:37:25.697Z,10.60
2022-11-19T03:39:57.937Z,10.50
2022-11-19T03:42:27.240Z,10.60
2022-11-19T03:45:02.960Z,10.70
2022-11-19T03:47:36.283Z,10.70
2022-11-19T03:50:31.489Z,10.80
2022-11-19T03:53:04.168Z,10.70
2022-11-19T03:55:51.855Z,10.90
2022-11-19T03:58:19.370Z,10.90
2022-11-19T04:00:46.840Z,10.80
2022-11-19T04:03:14.709Z,10.70
2022-11-19T04:05:41.870Z,10.80
2022-11-19T04:08:12.154Z,10.70
2022-11-19T04:10:39.250Z,10.80
2022-11-19T04:13:06.731Z,10.90
2022-11-19T04:15:33.918Z,10.90
2022-11-19T04:18:02.361Z,11.00
2022-11-19T04:20:29.891Z,11.00
2022-11-19T04:22:56.946Z,11.00
2022-11-19T04:25:26.297Z,10.90
2022-11-19T04:27:53.519Z,10.80
2022-11-19T04:30:21.056Z,10.90
2022-11-19T04:32:51.342Z,10.80
2022-11-19T04:35:24.530Z,10.80
2022-11-19T04:37:51.422Z,10.80
2022-11-19T04:40:18.884Z,10.80
2022-11-19T04:42:45.847Z,10.70
2022-11-19T04:45:12.997Z,10.70
2022-11-19T04:47:40.207Z,10.80
2022-11-19T04:50:10.132Z,10.70
2022-11-19T04:52:40.767Z,10.80
2022-11-19T04:55:09.627Z,10.80
2022-11-19T04:57:36.858Z,10.80
2022-11-19T05:00:05.142Z,10.90
2022-11-19T05:02:32.395Z,10.90
2022-11-19T05:04:59.333Z,10.80
2022-11-19T05:07:26.291Z,10.80
2022-11-19T05:09:53.256Z,10.70
2022-11-19T05:12:20.386Z,10.70
2022-11-19T05:14:47.693Z,11.00
2022-11-19T05:17:14.772Z,10.90
2022-11-19T05:19:41.850Z,10.90
2022-11-19T05:22:08.913Z,11.00
2022-11-19T05:24:36.168Z,10.90
2022-11-19T05:27:03.453Z,11.00
2022-11-19T05:29:30.620Z,10.90
2022-11-19T05:31:57.792Z,11.10
2022-11-19T05:34:24.749Z,11.00
2022-11-19T05:36:51.850Z,11.00
2022-11-19T05:39:22.232Z,10.80
2022-11-19T05:41:49.518Z,10.90
2022-11-19T05:44:16.726Z,11.00
2022-11-19T05:46:44.060Z,11.00
2022-11-19T05:49:11.964Z,10.80
2022-11-19T05:51:40.374Z,10.90
2022-11-19T05:54:07.377Z,10.80
2022-11-19T05:56:34.607Z,10.90
2022-11-19T05:59:01.445Z,11.10
2022-11-19T06:01:30.190Z,11.10
2022-11-19T06:03:57.544Z,11.10
2022-11-19T06:06:25.521Z,11.10
2022-11-19T06:08:52.430Z,11.10
2022-11-19T06:11:38.053Z,10.90
2022-11-19T06:14:05.278Z,10.90
2022-11-19T06:16:32.284Z,10.80
2022-11-19T06:18:59.447Z,10.80
2022-11-19T06:21:26.370Z,10.90
2022-11-19T06:23:53.490Z,10.60
2022-11-19T06:26:28.727Z,10.60
2022-11-19T06:28:56.439Z,10.70
2022-11-19T06:31:24.234Z,10.60
2022-11-19T06:33:53.480Z,10.70
2022-11-19T06:36:20.960Z,10.80
2022-11-19T06:38:48.248Z,10.90
2022-11-19T06:41:15.781Z,11.10
2022-11-19T06:43:43.260Z,11.00
2022-11-19T06:46:15.963Z,10.90
2022-11-19T06:48:42.966Z,10.90
2022-11-19T06:51:11.107Z,11.10
2022-11-19T06:53:38.006Z,11.10
2022-11-19T06:56:07.259Z,10.90
2022-11-19T06:58:34.825Z,10.80
2022-11-19T07:01:01.923Z,10.80
2022-11-19T07:03:28.815Z,10.90
2022-11-19T07:05:59.226Z,11.00
2022-11-19T07:08:26.088Z,11.00
2022-11-19T07:10:53.197Z,11.20
2022-11-19T07:13:20.243Z,11.40
2022-11-19T07:15:47.083Z,11.50
2022-11-19T07:18:23.433Z,11.60
2022-11-19T07:20:50.481Z,11.40
2022-11-19T07:23:20.716Z,11.40
2022-11-19T07:25:47.613Z,11.40
2022-11-19T07:28:14.808Z,11.30
2022-11-19T07:30:42.010Z,11.30
2022-11-19T07:33:09.001Z,11.10
2022-11-19T07:35:35.809Z,11.20
2022-11-19T07:38:02.696Z,11.20
2022-11-19T07:40:29.772Z,11.20
2022-11-19T07:42:59.421Z,11.10
2022-11-19T07:45:26.397Z,10.80
2022-11-19T07:47:53.588Z,10.50
2022-11-19T07:50:22.055Z,10.60
2022-11-19T07:52:48.905Z,10.60
2022-11-19T07:55:16.165Z,10.60
2022-11-19T07:57:43.182Z,10.60
2022-11-19T08:00:10.627Z,10.60
2022-11-19T08:02:37.519Z,10.80
2022-11-19T08:05:04.525Z,10.80
2022-11-19T08:07:31.465Z,10.70
2022-11-19T08:09:58.561Z,10.80
2022-11-19T08:12:25.415Z,10.80
2022-11-19T08:14:52.204Z,10.80
2022-11-19T08:17:38.381Z,10.80
2022-11-19T08:20:05.999Z,11.00
2022-11-19T08:22:33.233Z,11.00
2022-11-19T08:25:00.103Z,10.80
2022-11-19T08:27:27.124Z,11.10
2022-11-19T08:29:54.074Z,10.90
2022-11-19T08:32:21.023Z,11.00
2022-11-19T08:35:00.154Z,11.20
2022-11-19T08:37:27.563Z,11.10
2022-11-19T08:39:54.598Z,11.00
2022-11-19T08:42:40.355Z,11.20
2022-11-19T08:45:10.433Z,11.20
2022-11-19T08:47:37.314Z,11.40
2022-11-19T08:50:04.474Z,11.40
2022-11-19T08:52:32.809Z,11.40
2022-11-19T08:54:59.754Z,11.50
2022-11-19T08:57:26.870Z,11.60
2022-11-19T08:59:54.153Z,11.30
2022-11-19T09:02:21.115Z,11.40
2022-11-19T09:04:48.065Z,11.40
2022-11-19T09:07:15.014Z,11.40
2022-11-19T09:09:41.884Z,11.60
2022-11-19T09:12:09.716Z,11.60
2022-11-19T09:14:36.915Z,11.70
2022-11-19T09:17:04.149Z,11.70
2022-11-19T09:19:31.109Z,11.50
2022-11-19T09:21:58.702Z,11.60
2022-11-19T09:24:27.518Z,11.70
2022-11-19T09:26:58.308Z,11.70
2022-11-19T09:29:43.162Z,11.70
2022-11-19T09:32:21.145Z,11.70
2022-11-19T09:34:52.368Z,11.90
2022-11-19T09:37:19.769Z,12.10
2022-11-19T09:39:47.109Z,12.40
2022-11-19T09:42:39.753Z,12.40
2022-11-19T09:45:24.597Z,12.50
2022-11-19T09:48:10.699Z,12.60
2022-11-19T09:51:00.437Z,12.50
2022-11-19T09:53:33.118Z,12.40
2022-11-19T09:56:00.814Z,12.50
2022-11-19T09:58:33.185Z,12.50
2022-11-19T10:01:00.796Z,12.70
2022-11-19T10:03:33.211Z,12.60
2022-11-19T10:06:15.608Z,12.40
2022-11-19T10:09:04.505Z,12.40
2022-11-19T10:11:51.205Z,12.40
2022-11-19T10:14:33.219Z,12.60
2022-11-19T10:17:18.876Z,12.40
2022-11-19T10:20:04.062Z,12.40
2022-11-19T10:22:39.889Z,12.40
2022-11-19T10:25:13.223Z,12.40
2022-11-19T10:27:55.244Z,12.10
2022-11-19T10:30:25.868Z,12.40
2022-11-19T10:33:03.507Z,12.40
2022-11-19T10:35:32.613Z,12.40
2022-11-19T10:38:02.872Z,12.20
2022-11-19T10:40:43.503Z,12.30
2022-11-19T10:43:20.658Z,12.40
2022-11-19T10:45:50.421Z,12.40
2022-11-19T10:48:23.887Z,12.30
2022-11-19T10:50:53.020Z,12.30
2022-11-19T10:53:39.727Z,12.30
2022-11-19T10:56:22.711Z,12.20
2022-11-19T10:58:58.130Z,12.30
2022-11-19T11:01:41.308Z,12.60
2022-11-19T11:04:15.596Z,12.60
2022-11-19T11:07:03.831Z,12.50
2022-11-19T11:09:33.916Z,12.40
2022-11-19T11:12:41.685Z,12.30
2022-11-19T11:15:21.627Z,12.30
2022-11-19T11:18:11.200Z,12.50
2022-11-19T11:20:40.456Z,12.50
2022-11-19T11:23:24.501Z,12.40
2022-11-19T11:26:12.423Z,12.40
2022-11-19T11:29:19.734Z,12.40
2022-11-19T11:31:51.078Z,12.60
2022-11-19T11:34:43.673Z,12.50
2022-11-19T11:37:12.487Z,12.60
2022-11-19T11:39:44.164Z,12.60
2022-11-19T11:42:18.157Z,12.70
2022-11-19T11:45:02.352Z,12.60
2022-11-19T11:47:41.645Z,12.50
2022-11-19T11:50:22.014Z,12.60
2022-11-19T11:52:53.992Z,12.50
2022-11-19T11:55:24.724Z,12.40
2022-11-19T11:58:25.288Z,12.40
2022-11-19T12:00:55.638Z,12.50
2022-11-19T12:03:24.514Z,12.50
2022-11-19T12:06:12.953Z,12.60
2022-11-19T12:08:50.686Z,12.90
2022-11-19T12:11:58.086Z,12.90
2022-11-19T12:14:55.411Z,12.80
2022-11-19T12:17:41.183Z,12.80
2022-11-19T12:20:34.043Z,12.90
2022-11-19T12:23:06.362Z,13.00
2022-11-19T12:25:52.869Z,12.80
2022-11-19T12:28:51.691Z,12.80
2022-11-19T12:31:47.937Z,13.10
2022-11-19T12:34:42.804Z,13.30
2022-11-19T12:37:23.046Z,13.20
2022-11-19T12:40:04.148Z,13.10
2022-11-19T12:43:00.586Z,13.00
2022-11-19T12:45:52.332Z,13.00
2022-11-19T12:48:47.719Z,12.70
2022-11-19T12:51:17.803Z,12.60
2022-11-19T12:54:07.019Z,12.30
2022-11-19T12:56:43.798Z,11.90
2022-11-19T12:59:26.532Z,11.50
2022-11-19T13:01:55.311Z,11.40
2022-11-19T13:05:02.734Z,11.30
2022-11-19T13:07:39.833Z,11.20
2022-11-19T13:10:21.500Z,11.30
2022-11-19T13:12:52.332Z,11.10
2022-11-19T13:15:22.696Z,11.10
2022-11-19T13:17:54.249Z,11.10
2022-11-19T13:20:32.591Z,11.10
2022-11-19T13:23:04.504Z,11.20
2022-11-19T13:25:40.939Z,11.00
2022-11-19T13:28:27.649Z,10.80
2022-11-19T13:31:00.492Z,10.80
2022-11-19T13:33:37.637Z,10.40
2022-11-19T13:36:15.953Z,10.30
2022-11-19T13:39:26.811Z,10.30
2022-11-19T13:42:14.919Z,10.40
2022-11-19T13:44:43.138Z,10.40
2022-11-19T13:47:24.332Z,10.40
2022-11-19T13:50:02.802Z,10.20
2022-11-19T13:52:37.013Z,10.20
2022-11-19T13:55:21.188Z,10.20
2022-11-19T13:57:50.691Z,10.10
2022-11-19T14:00:26.554Z,10.10
2022-11-19T14:03:14.690Z,10.00
2022-11-19T14:05:47.987Z,9.90
2022-11-19T14:08:33.667Z,10.00
2022-11-19T14:11:29.883Z,10.00
2022-11-19T14:14:53.209Z,9.90
2022-11-19T14:18:06.496Z,9.90
2022-11-19T14:20:59.332Z,9.90
2022-11-19T14:24:14.405Z,9.90
2022-11-19T14:26:41.725Z,9.60
2022-11-19T14:29:26.725Z,9.60
2022-11-19T14:32:06.337Z,9.80
2022-11-19T14:34:36.729Z,9.60
2022-11-19T14:37:20.345Z,9.60
2022-11-19T14:40:10.739Z,9.70
2022-11-19T14:43:17.575Z,9.60
2022-11-19T14:46:05.342Z,9.60
2022-11-19T14:48:41.623Z,9.60
2022-11-19T14:51:13.198Z,9.60
2022-11-19T14:53:59.398Z,9.70
2022-11-19T14:56:27.833Z,9.70
2022-11-19T14:59:11.493Z,9.70
2022-11-19T15:01:59.387Z,9.70
2022-11-19T15:04:34.970Z,9.60
2022-11-19T15:07:09.929Z,9.70
2022-11-19T15:10:04.833Z,9.50
2022-11-19T15:12:48.816Z,9.60
2022-11-19T15:15:24.937Z,9.60
2022-11-19T15:18:02.369Z,9.50
2022-11-19T15:20:32.909Z,9.60
2022-11-19T15:23:05.917Z,9.50
2022-11-19T15:25:51.634Z,9.50
2022-11-19T15:28:37.483Z,9.40
2022-11-19T15:31:13.861Z,9.30
2022-11-19T15:33:52.170Z,9.40
2022-11-19T15:36:33.050Z,9.30
2022-11-19T15:39:31.910Z,9.20
2022-11-19T15:42:06.211Z,9.30
2022-11-19T15:44:51.112Z,9.40
2022-11-19T15:47:29.179Z,9.20
2022-11-19T15:49:58.558Z,9.20
2022-11-19T15:52:32.323Z,9.00
2022-11-19T15:55:24.466Z,9.00
2022-11-19T15:57:56.157Z,9.10
2022-11-19T16:00:23.870Z,9.20
2022-11-19T16:02:52.834Z,9.00
2022-11-19T16:05:29.778Z,9.00
2022-11-19T16:08:00.098Z,9.10
2022-11-19T16:10:34.451Z,8.80
2022-11-19T16:13:22.797Z,9.00
2022-11-19T16:16:12.981Z,9.10
2022-11-19T16:18:50.924Z,9.10
2022-11-19T16:21:28.939Z,9.00
2022-11-19T16:24:14.786Z,9.10
2022-11-19T16:26:44.408Z,9.10
2022-11-19T16:29:22.126Z,9.00
2022-11-19T16:31:51.089Z,8.90
2022-11-19T16:34:38.316Z,8.90
2022-11-19T16:37:05.564Z,9.00
2022-11-19T16:39:34.329Z,8.80
2022-11-19T16:42:17.635Z,8.70
2022-11-19T16:44:54.697Z,8.80
2022-11-19T16:47:50.089Z,8.80
2022-11-19T16:50:36.050Z,8.70
2022-11-19T16:53:05.899Z,8.70
2022-11-19T16:55:34.564Z,8.70
2022-11-19T16:58:12.256Z,8.70
2022-11-19T17:00:39.528Z,8.70
2022-11-19T17:03:21.698Z,8.70
2022-11-19T17:05:52.217Z,8.70
2022-11-19T17:08:23.934Z,8.70
2022-11-19T17:11:30.824Z,8.70
2022-11-19T17:13:58.271Z,8.70
2022-11-19T17:16:25.908Z,8.80
2022-11-19T17:18:52.765Z,8.70
2022-11-19T17:21:30.300Z,8.70
2022-11-19T17:23:58.321Z,8.60
2022-11-19T17:26:28.933Z,8.60
2022-11-19T17:29:10.736Z,8.50
2022-11-19T17:31:37.985Z,8.60
2022-11-19T17:34:04.888Z,8.60
2022-11-19T17:36:32.083Z,8.50
2022-11-19T17:38:59.791Z,8.40
2022-11-19T17:41:47.620Z,8.30
2022-11-19T17:44:36.195Z,8.30
2022-11-19T17:47:22.690Z,8.40
2022-11-19T17:49:51.182Z,8.40
2022-11-19T17:52:26.136Z,8.40
2022-11-19T17:54:57.007Z,8.10
2022-11-19T17:57:24.415Z,8.10
2022-11-19T17:59:51.427Z,8.20
2022-11-19T18:02:20.901Z,8.30
2022-11-19T18:04:49.364Z,8.40
2022-11-19T18:07:16.427Z,8.40
2022-11-19T18:09:43.653Z,8.40
2022-11-19T18:12:16.922Z,8.30
2022-11-19T18:14:44.670Z,8.30
2022-11-19T18:17:12.981Z,8.40
2022-11-19T18:19:40.246Z,8.40
2022-11-19T18:22:17.394Z,8.40
2022-11-19T18:24:46.571Z,8.40
2022-11-19T18:27:13.936Z,8.40
2022-11-19T18:29:40.888Z,8.40
2022-11-19T18:32:10.500Z,8.50
2022-11-19T18:34:37.863Z,8.40
2022-11-19T18:37:05.019Z,8.30
2022-11-19T18:39:32.061Z,8.40
2022-11-19T18:41:59.210Z,8.40
2022-11-19T18:44:34.930Z,8.40
2022-11-19T18:47:10.724Z,8.40
2022-11-19T18:49:38.701Z,8.30
2022-11-19T18:52:08.236Z,8.10
2022-11-19T18:54:35.503Z,8.20
2022-11-19T18:57:02.571Z,8.10
2022-11-19T18:59:32.716Z,8.10
2022-11-19T19:01:59.722Z,8.00
2022-11-19T19:04:26.839Z,8.00
2022-11-19T19:06:54.005Z,8.20
2022-11-19T19:09:21.881Z,8.30
2022-11-19T19:12:13.088Z,8.30
2022-11-19T19:14:41.527Z,8.30
2022-11-19T19:17:09.310Z,8.30
2022-11-19T19:19:36.166Z,8.30
2022-11-19T19:22:03.614Z,8.30
2022-11-19T19:24:31.586Z,8.20
2022-11-19T19:26:59.919Z,8.40
2022-11-19T19:29:27.088Z,8.20
2022-11-19T19:31:54.755Z,8.10
2022-11-19T19:34:21.650Z,8.20
2022-11-19T19:36:52.958Z,8.30
2022-11-19T19:39:21.443Z,8.20
2022-11-19T19:41:49.409Z,8.10
2022-11-19T19:44:17.054Z,8.10
2022-11-19T19:46:43.826Z,8.10
2022-11-19T19:49:10.848Z,8.00
2022-11-19T19:51:38.497Z,8.00
2022-11-19T19:54:05.567Z,8.00
2022-11-19T19:56:33.687Z,8.10
2022-11-19T19:59:01.635Z,8.10
2022-11-19T20:01:31.532Z,8.10
2022-11-19T20:04:07.598Z,8.00
2022-11-19T20:06:37.789Z,8.10
2022-11-19T20:09:08.982Z,8.10
2022-11-19T20:11:37.196Z,8.00
2022-11-19T20:14:04.340Z,8.00
2022-11-19T20:16:32.553Z,7.90
2022-11-19T20:19:00.570Z,8.00
2022-11-19T20:21:31.687Z,8.00
2022-11-19T20:23:58.676Z,8.00
2022-11-19T20:26:28.744Z,8.00
2022-11-19T20:29:00.933Z,8.00
2022-11-19T20:31:29.136Z,8.00
2022-11-19T20:33:58.216Z,7.90
2022-11-19T20:36:28.778Z,7.90
2022-11-19T20:38:57.660Z,7.90
2022-11-19T20:41:44.976Z,7.90
2022-11-19T20:44:23.290Z,7.90
2022-11-19T20:47:02.380Z,7.90
2022-11-19T20:49:35.038Z,7.80
2022-11-19T20:52:03.848Z,7.80
2022-11-19T20:54:31.040Z,7.90
2022-11-19T20:56:59.490Z,8.00
2022-11-19T20:59:28.273Z,7.80
2022-11-19T21:01:57.059Z,7.80
2022-11-19T21:04:25.665Z,8.00
2022-11-19T21:06:54.018Z,7.90
2022-11-19T21:09:21.977Z,7.90
2022-11-19T21:11:49.399Z,8.00
2022-11-19T21:14:16.480Z,8.00
2022-11-19T21:16:43.763Z,8.00
2022-11-19T21:19:11.572Z,7.90
2022-11-19T21:21:39.003Z,7.90
2022-11-19T21:24:06.970Z,8.00
2022-11-19T21:26:33.813Z,8.00
2022-11-19T21:29:00.921Z,8.00
2022-11-19T21:31:41.500Z,7.80
2022-11-19T21:34:09.479Z,7.90
2022-11-19T21:36:37.260Z,7.80
2022-11-19T21:39:05.939Z,7.90
2022-11-19T21:41:34.925Z,7.90
2022-11-19T21:44:03.473Z,7.80
2022-11-19T21:46:30.716Z,7.80
2022-11-19T21:48:57.689Z,7.80
2022-11-19T21:51:25.425Z,7.80
2022-11-19T21:54:02.470Z,7.80
2022-11-19T21:56:33.835Z,7.70
2022-11-19T21:59:05.538Z,7.70
2022-11-19T22:01:32.550Z,7.70
2022-11-19T22:03:59.704Z,7.70
2022-11-19T22:06:26.947Z,7.70
2022-11-19T22:08:53.928Z,7.80
2022-11-19T22:11:30.330Z,7.60
2022-11-19T22:14:02.104Z,7.70
2022-11-19T22:16:30.466Z,7.70
2022-11-19T22:18:57.678Z,7.60
2022-11-19T22:21:25.557Z,7.50
2022-11-19T22:23:53.389Z,7.40
2022-11-19T22:26:20.747Z,7.50
2022-11-19T22:28:47.953Z,7.60
2022-11-19T22:31:15.873Z,7.70
2022-11-19T22:33:43.333Z,7.70
2022-11-19T22:36:11.976Z,7.80
2022-11-19T22:38:39.578Z,7.80
2022-11-19T22:41:14.753Z,7.80
2022-11-19T22:43:42.503Z,7.80
2022-11-19T22:46:11.806Z,7.70
2022-11-19T22:48:39.510Z,7.90
2022-11-19T22:51:15.693Z,7.60
2022-11-19T22:53:43.548Z,7.70
2022-11-19T22:56:13.746Z,7.60
2022-11-19T22:58:40.975Z,7.70
2022-11-19T23:01:17.740Z,7.60
2022-11-19T23:03:46.385Z,7.60
2022-11-19T23:06:14.140Z,7.50
2022-11-19T23:08:41.272Z,7.60
2022-11-19T23:11:09.523Z,7.50
2022-11-19T23:13:39.298Z,7.50
2022-11-19T23:16:16.527Z,7.60
2022-11-19T23:18:47.921Z,7.60
2022-11-19T23:21:19.808Z,7.70
2022-11-19T23:23:46.822Z,7.80
2022-11-19T23:26:15.538Z,7.70
2022-11-19T23:28:43.274Z,7.70
2022-11-19T23:31:11.731Z,7.80
2022-11-19T23:33:39.149Z,7.70
2022-11-19T23:36:21.448Z,7.80
2022-11-19T23:38:48.636Z,7.90
2022-11-19T23:41:17.236Z,7.80
2022-11-19T23:43:44.855Z,7.70
2022-11-19T23:46:13.660Z,7.70
2022-11-19T23:48:43.023Z,7.60
2022-11-19T23:51:13.237Z,7.70
2022-11-19T23:53:40.728Z,7.60
2022-11-19T23:56:08.128Z,7.60
2022-11-19T23:58:35.214Z,7.70
